Time;durP1;ratioP1;P1;durP2;ratioP2;P2;SDS_P1;SDS_P2;PMS_P1;PMS_P2;Temp;Humidity;BMP_temperature;BMP_pressure;BME280_temperature;BME280_humidity;BME280_pressure;Samples;Min_cycle;Max_cycle;Signal;HPM_P1;HPM_P2
2023/05/27 00:01:18;;;;;;;10.18;8.98;;;;;;;;;;5088070;28;20031;-79
2023/05/27 00:03:43;;;;;;;12.52;8.50;;;;;;;;;;5097194;27;20519;-78
2023/05/27 00:06:08;;;;;;;10.40;8.57;;;;;;;;;;5107814;27;20047;-77
2023/05/27 00:08:34;;;;;;;11.15;8.57;;;;;;;;;;5107499;27;20373;-78
2023/05/27 00:10:59;;;;;;;10.50;8.80;;;;;;;;;;5106068;27;20119;-76
2023/05/27 00:13:24;;;;;;;14.15;9.73;;;;;;;;;;5106842;27;20031;-78
2023/05/27 00:15:50;;;;;;;10.48;9.00;;;;;;;;;;5108568;27;20030;-79
2023/05/27 00:18:15;;;;;;;17.27;10.10;;;;;;;;;;5098420;27;20015;-83
2023/05/27 00:20:41;;;;;;;13.25;11.23;;;;;;;;;;5096682;28;20035;-78
2023/05/27 00:23:06;;;;;;;15.82;11.32;;;;;;;;;;5105315;27;20019;-76
2023/05/27 00:25:32;;;;;;;19.83;10.73;;;;;;;;;;5105988;27;20019;-76
2023/05/27 00:27:57;;;;;;;17.83;11.40;;;;;;;;;;5105179;27;20020;-79
2023/05/27 00:30:22;;;;;;;21.08;11.45;;;;;;;;;;5106275;27;20032;-78
2023/05/27 00:32:48;;;;;;;19.23;12.85;;;;;;;;;;5107925;27;20024;-77
2023/05/27 00:35:13;;;;;;;16.25;13.15;;;;;;;;;;5104969;27;20337;-78
2023/05/27 00:37:38;;;;;;;14.63;12.43;;;;;;;;;;5104671;27;20069;-81
2023/05/27 00:40:05;;;;;;;37.35;15.10;;;;;;;;;;5106653;27;20092;-80
2023/05/27 00:42:30;;;;;;;29.75;14.23;;;;;;;;;;5105493;27;20434;-79
2023/05/27 00:44:55;;;;;;;32.55;15.45;;;;;;;;;;5104530;27;20020;-79
2023/05/27 00:47:21;;;;;;;47.47;13.23;;;;;;;;;;5097535;27;20031;-77
2023/05/27 00:49:47;;;;;;;16.05;11.90;;;;;;;;;;5106038;27;20023;-78
2023/05/27 00:52:13;;;;;;;79.55;16.17;;;;;;;;;;5095074;27;20019;-78
2023/05/27 00:54:39;;;;;;;53.30;16.48;;;;;;;;;;5104520;28;20081;-80
2023/05/27 00:57:05;;;;;;;19.02;14.00;;;;;;;;;;5105829;27;20059;-82
2023/05/27 00:59:31;;;;;;;31.50;14.27;;;;;;;;;;5108200;27;20034;-76
2023/05/27 01:01:57;;;;;;;28.55;16.45;;;;;;;;;;5103250;27;20031;-79
2023/05/27 01:04:24;;;;;;;29.67;18.48;;;;;;;;;;5097778;27;20050;-77
2023/05/27 01:06:58;;;;;;;33.30;16.00;;;;;;;;;;5106807;27;20543;-78
2023/05/27 01:09:31;;;;;;;21.10;14.10;;;;;;;;;;5106790;27;20023;-78
2023/05/27 01:11:59;;;;;;;14.50;12.27;;;;;;;;;;5104918;27;20114;-80
2023/05/27 01:14:25;;;;;;;13.80;11.63;;;;;;;;;;5104407;27;20076;-79
2023/05/27 01:16:51;;;;;;;10.65;9.52;;;;;;;;;;5104976;27;20019;-77
2023/05/27 01:19:37;;;;;;;10.27;9.27;;;;;;;;;;5103757;27;20901;-82
2023/05/27 01:22:04;;;;;;;10.13;8.73;;;;;;;;;;5104976;27;20066;-76
2023/05/27 01:24:29;;;;;;;12.32;8.00;;;;;;;;;;5095170;28;20016;-76
2023/05/27 01:27:01;;;;;;;11.27;8.73;;;;;;;;;;5086630;28;20038;-77
2023/05/27 01:29:26;;;;;;;11.27;8.00;;;;;;;;;;5096151;27;20047;-78
2023/05/27 01:32:03;;;;;;;8.93;8.07;;;;;;;;;;5103220;27;20531;-81
2023/05/27 01:34:41;;;;;;;10.88;8.77;;;;;;;;;;5104001;27;20106;-75
2023/05/27 01:37:08;;;;;;;9.13;7.88;;;;;;;;;;5086863;28;20026;-77
2023/05/27 01:39:34;;;;;;;8.93;7.35;;;;;;;;;;5104827;27;20466;-76
2023/05/27 01:42:01;;;;;;;11.85;7.57;;;;;;;;;;5100592;28;20165;-78
2023/05/27 01:44:28;;;;;;;9.73;7.25;;;;;;;;;;5094752;28;20088;-77
2023/05/27 01:46:57;;;;;;;11.02;7.00;;;;;;;;;;5094048;28;20026;-75
2023/05/27 01:49:23;;;;;;;16.60;7.70;;;;;;;;;;5105090;27;20022;-77
2023/05/27 01:51:48;;;;;;;7.90;6.75;;;;;;;;;;5103246;27;20035;-74
2023/05/27 01:54:13;;;;;;;9.30;6.53;;;;;;;;;;5104650;27;20080;-77
2023/05/27 01:56:39;;;;;;;8.93;7.00;;;;;;;;;;5107195;28;20027;-77
2023/05/27 01:59:04;;;;;;;9.02;7.15;;;;;;;;;;5103441;27;20023;-77
2023/05/27 02:01:30;;;;;;;8.05;6.93;;;;;;;;;;5103987;28;20038;-77
2023/05/27 02:03:56;;;;;;;8.65;7.13;;;;;;;;;;5103935;28;20019;-79
2023/05/27 02:06:21;;;;;;;12.20;7.43;;;;;;;;;;5103959;27;20020;-79
2023/05/27 02:08:46;;;;;;;10.38;7.07;;;;;;;;;;5093604;28;20024;-77
2023/05/27 02:11:12;;;;;;;8.70;6.88;;;;;;;;;;5102871;28;20054;-79
2023/05/27 02:13:37;;;;;;;9.45;6.72;;;;;;;;;;5104803;28;20015;-78
2023/05/27 02:16:02;;;;;;;10.35;7.32;;;;;;;;;;5103977;28;20579;-79
2023/05/27 02:18:28;;;;;;;12.73;8.30;;;;;;;;;;5103442;28;20110;-75
2023/05/27 02:20:53;;;;;;;27.67;15.90;;;;;;;;;;5090132;28;20138;-76
2023/05/27 02:23:18;;;;;;;23.65;15.50;;;;;;;;;;5105055;28;20020;-78
2023/05/27 02:25:44;;;;;;;15.82;12.23;;;;;;;;;;5104717;28;20015;-77
2023/05/27 02:28:09;;;;;;;13.50;8.70;;;;;;;;;;5103085;28;20033;-78
2023/05/27 02:30:34;;;;;;;13.25;8.95;;;;;;;;;;5076623;28;20084;-77
2023/05/27 02:33:00;;;;;;;11.13;8.38;;;;;;;;;;5108396;27;20315;-77
2023/05/27 02:35:25;;;;;;;11.43;8.18;;;;;;;;;;5109174;27;20381;-78
2023/05/27 02:37:50;;;;;;;10.13;7.15;;;;;;;;;;5108027;27;20028;-78
2023/05/27 02:40:25;;;;;;;9.70;7.65;;;;;;;;;;5108851;27;20027;-76
2023/05/27 02:42:51;;;;;;;7.75;6.75;;;;;;;;;;5106892;27;20028;-80
2023/05/27 02:45:16;;;;;;;9.30;7.38;;;;;;;;;;5107452;27;20030;-78
2023/05/27 02:47:42;;;;;;;8.18;6.90;;;;;;;;;;5109216;27;20353;-77
2023/05/27 02:50:07;;;;;;;8.25;7.43;;;;;;;;;;5109415;27;20050;-77
2023/05/27 02:52:32;;;;;;;10.40;7.15;;;;;;;;;;5110357;27;20023;-78
2023/05/27 02:54:58;;;;;;;9.75;7.53;;;;;;;;;;5106167;28;20049;-79
2023/05/27 02:57:23;;;;;;;14.35;7.18;;;;;;;;;;5110794;27;20072;-78
2023/05/27 02:59:48;;;;;;;8.05;6.47;;;;;;;;;;5109028;27;20151;-77
2023/05/27 03:02:14;;;;;;;13.43;7.22;;;;;;;;;;5106069;27;20103;-77
2023/05/27 03:04:39;;;;;;;15.15;9.27;;;;;;;;;;5106440;27;20472;-79
2023/05/27 03:07:05;;;;;;;15.07;9.75;;;;;;;;;;5106900;27;20038;-78
2023/05/27 03:09:30;;;;;;;13.80;10.25;;;;;;;;;;5105637;27;20403;-77
2023/05/27 03:11:55;;;;;;;17.83;10.55;;;;;;;;;;5108695;27;20032;-77
2023/05/27 03:14:21;;;;;;;11.88;10.68;;;;;;;;;;5090997;27;20449;-78
2023/05/27 03:16:46;;;;;;;18.88;10.90;;;;;;;;;;5107440;27;20323;-75
2023/05/27 03:19:11;;;;;;;23.20;11.90;;;;;;;;;;5089525;27;20019;-76
2023/05/27 03:21:37;;;;;;;18.25;12.73;;;;;;;;;;5106229;27;20042;-76
2023/05/27 03:24:02;;;;;;;12.75;10.60;;;;;;;;;;5107178;27;20030;-75
2023/05/27 03:26:28;;;;;;;17.65;11.07;;;;;;;;;;5107257;27;20138;-78
2023/05/27 03:28:53;;;;;;;16.73;11.50;;;;;;;;;;5107816;27;20035;-79
2023/05/27 03:31:18;;;;;;;12.32;10.68;;;;;;;;;;5105460;27;20065;-77
2023/05/27 03:33:44;;;;;;;14.02;11.00;;;;;;;;;;5108392;27;20024;-77
2023/05/27 03:36:09;;;;;;;15.85;11.23;;;;;;;;;;5109182;27;20038;-78
2023/05/27 03:38:34;;;;;;;16.00;12.32;;;;;;;;;;5107963;27;20023;-76
2023/05/27 03:41:00;;;;;;;21.15;12.85;;;;;;;;;;5106209;27;20428;-78
2023/05/27 03:43:25;;;;;;;17.05;12.77;;;;;;;;;;5105248;27;20397;-76
2023/05/27 03:45:51;;;;;;;14.43;12.00;;;;;;;;;;5096697;27;20043;-75
2023/05/27 03:48:16;;;;;;;11.70;10.48;;;;;;;;;;5105536;27;20027;-74
2023/05/27 03:50:41;;;;;;;10.35;9.45;;;;;;;;;;5105216;27;20430;-79
2023/05/27 03:53:07;;;;;;;9.27;8.32;;;;;;;;;;5106530;27;20023;-77
2023/05/27 03:55:32;;;;;;;8.95;8.10;;;;;;;;;;5109514;27;20023;-77
2023/05/27 03:57:57;;;;;;;13.73;12.13;;;;;;;;;;5106891;27;20837;-77
2023/05/27 04:00:23;;;;;;;7.93;7.05;;;;;;;;;;5108690;27;20365;-77
2023/05/27 04:02:48;;;;;;;9.07;7.25;;;;;;;;;;5105725;27;20027;-76
2023/05/27 04:05:16;;;;;;;7.53;6.82;;;;;;;;;;5088499;28;20023;-76
2023/05/27 04:07:42;;;;;;;8.57;7.63;;;;;;;;;;5107397;27;20033;-77
2023/05/27 04:10:07;;;;;;;8.63;7.70;;;;;;;;;;5105045;28;20047;-78
2023/05/27 04:12:33;;;;;;;9.95;8.95;;;;;;;;;;5105475;27;20746;-77
2023/05/27 04:14:58;;;;;;;8.10;6.95;;;;;;;;;;5106761;27;20019;-76
2023/05/27 04:17:23;;;;;;;8.15;6.10;;;;;;;;;;5105340;27;20288;-77
2023/05/27 04:19:49;;;;;;;8.10;7.40;;;;;;;;;;5105039;27;20146;-77
2023/05/27 04:22:14;;;;;;;8.75;7.30;;;;;;;;;;5105963;27;20351;-74
2023/05/27 04:24:40;;;;;;;12.40;10.38;;;;;;;;;;5107922;27;20039;-76
2023/05/27 04:27:06;;;;;;;15.38;10.15;;;;;;;;;;5106489;27;20047;-76
2023/05/27 04:29:32;;;;;;;14.73;10.30;;;;;;;;;;5104893;27;20036;-76
2023/05/27 04:31:58;;;;;;;13.48;10.27;;;;;;;;;;5106164;27;20036;-76
2023/05/27 04:34:23;;;;;;;10.32;8.80;;;;;;;;;;5105258;27;20085;-76
2023/05/27 04:36:49;;;;;;;9.80;8.90;;;;;;;;;;5107947;27;20028;-76
2023/05/27 04:39:18;;;;;;;9.93;8.93;;;;;;;;;;5105653;27;20016;-77
2023/05/27 04:41:44;;;;;;;9.67;8.73;;;;;;;;;;5104569;27;20036;-77
2023/05/27 04:44:11;;;;;;;9.60;8.68;;;;;;;;;;5105695;27;20609;-76
2023/05/27 04:46:38;;;;;;;9.40;8.60;;;;;;;;;;5108087;27;20059;-76
2023/05/27 04:49:04;;;;;;;9.98;8.50;;;;;;;;;;5106129;27;20031;-76
2023/05/27 04:51:29;;;;;;;9.35;8.50;;;;;;;;;;5087643;28;20404;-78
2023/05/27 04:53:56;;;;;;;9.38;8.40;;;;;;;;;;5105107;27;20024;-77
2023/05/27 04:56:21;;;;;;;9.50;8.43;;;;;;;;;;5103585;27;20031;-77
2023/05/27 04:58:48;;;;;;;10.68;9.57;;;;;;;;;;5089811;28;20023;-77
2023/05/27 05:01:17;;;;;;;9.57;8.57;;;;;;;;;;5070912;28;20104;-79
2023/05/27 05:03:51;;;;;;;9.40;8.50;;;;;;;;;;5089346;28;20440;-78
2023/05/27 05:06:17;;;;;;;9.73;8.73;;;;;;;;;;5090879;27;20103;-77
2023/05/27 05:08:43;;;;;;;9.20;8.18;;;;;;;;;;5089859;28;20119;-76
2023/05/27 05:11:08;;;;;;;9.75;7.88;;;;;;;;;;5088913;28;20051;-79
2023/05/27 05:13:33;;;;;;;9.10;8.27;;;;;;;;;;5072112;28;20030;-77
2023/05/27 05:15:59;;;;;;;10.23;9.18;;;;;;;;;;5088665;27;20551;-76
2023/05/27 05:18:24;;;;;;;9.75;8.68;;;;;;;;;;5090458;27;20419;-78
2023/05/27 05:20:49;;;;;;;8.05;7.40;;;;;;;;;;5091877;27;20035;-77
2023/05/27 05:23:16;;;;;;;7.47;6.88;;;;;;;;;;5090792;28;20072;-76
2023/05/27 05:25:41;;;;;;;7.40;6.18;;;;;;;;;;5088212;27;20036;-76
2023/05/27 05:28:06;;;;;;;7.00;6.40;;;;;;;;;;5089689;27;20491;-75
2023/05/27 05:30:32;;;;;;;7.60;7.00;;;;;;;;;;5089314;28;20095;-75
2023/05/27 05:32:58;;;;;;;7.43;6.82;;;;;;;;;;5088640;27;20027;-76
2023/05/27 05:35:23;;;;;;;7.05;6.55;;;;;;;;;;5087115;28;20304;-75
2023/05/27 05:37:49;;;;;;;8.93;7.40;;;;;;;;;;5090918;27;20058;-75
2023/05/27 05:40:14;;;;;;;8.98;6.57;;;;;;;;;;5096435;27;20437;-77
2023/05/27 05:42:40;;;;;;;7.20;6.60;;;;;;;;;;5088169;27;20027;-76
2023/05/27 05:45:06;;;;;;;7.95;7.35;;;;;;;;;;5090383;27;20035;-75
2023/05/27 05:47:31;;;;;;;8.00;6.88;;;;;;;;;;5089767;27;20339;-78
2023/05/27 05:49:57;;;;;;;6.85;6.35;;;;;;;;;;5104275;27;20049;-73
2023/05/27 05:52:22;;;;;;;7.72;7.03;;;;;;;;;;5071142;28;20050;-76
2023/05/27 05:54:48;;;;;;;8.05;7.43;;;;;;;;;;5087840;28;20027;-76
2023/05/27 05:57:13;;;;;;;8.02;7.35;;;;;;;;;;5087873;28;20439;-75
2023/05/27 05:59:38;;;;;;;8.80;7.95;;;;;;;;;;5092140;28;20116;-77
2023/05/27 06:02:04;;;;;;;8.35;7.65;;;;;;;;;;5092441;28;20031;-77
2023/05/27 06:04:29;;;;;;;8.52;7.82;;;;;;;;;;5097148;28;21174;-75
2023/05/27 06:06:55;;;;;;;8.40;7.70;;;;;;;;;;5098674;27;20019;-76
2023/05/27 06:09:20;;;;;;;10.40;8.48;;;;;;;;;;5099258;27;20080;-75
2023/05/27 06:11:45;;;;;;;10.07;9.18;;;;;;;;;;5104178;28;20047;-77
2023/05/27 06:14:11;;;;;;;10.95;9.90;;;;;;;;;;5104443;28;20046;-76
2023/05/27 06:16:37;;;;;;;10.23;9.23;;;;;;;;;;5096604;28;20035;-76
2023/05/27 06:19:02;;;;;;;10.43;9.43;;;;;;;;;;5096466;28;20123;-77
2023/05/27 06:21:29;;;;;;;9.65;8.68;;;;;;;;;;5104820;28;20032;-76
2023/05/27 06:23:55;;;;;;;10.38;9.38;;;;;;;;;;5096752;28;20023;-74
2023/05/27 06:26:21;;;;;;;9.63;8.63;;;;;;;;;;5096288;28;20057;-77
2023/05/27 06:28:46;;;;;;;10.43;9.45;;;;;;;;;;5104321;28;20050;-76
2023/05/27 06:31:11;;;;;;;9.20;8.38;;;;;;;;;;5104016;28;20067;-76
2023/05/27 06:33:37;;;;;;;10.40;9.40;;;;;;;;;;5093387;28;20119;-76
2023/05/27 06:36:02;;;;;;;9.98;9.05;;;;;;;;;;5088610;28;20027;-77
2023/05/27 06:38:27;;;;;;;9.30;8.50;;;;;;;;;;5097429;28;20020;-74
2023/05/27 06:40:53;;;;;;;9.65;8.70;;;;;;;;;;5088922;28;20027;-76
2023/05/27 06:43:18;;;;;;;9.82;8.95;;;;;;;;;;5095693;28;20122;-74
2023/05/27 06:45:43;;;;;;;9.55;8.65;;;;;;;;;;5102173;28;20438;-75
2023/05/27 06:48:09;;;;;;;9.50;8.50;;;;;;;;;;5091588;28;20437;-75
2023/05/27 06:50:34;;;;;;;9.50;7.90;;;;;;;;;;5104891;28;20067;-76
2023/05/27 06:52:59;;;;;;;9.60;8.68;;;;;;;;;;5103704;28;20077;-76
2023/05/27 06:55:25;;;;;;;9.25;8.35;;;;;;;;;;5102005;28;20069;-75
2023/05/27 06:57:50;;;;;;;9.65;8.75;;;;;;;;;;5107368;28;20019;-78
2023/05/27 07:00:16;;;;;;;8.90;8.00;;;;;;;;;;5105005;28;20027;-79
2023/05/27 07:02:41;;;;;;;10.13;9.15;;;;;;;;;;5095721;28;20031;-75
2023/05/27 07:05:06;;;;;;;8.93;8.13;;;;;;;;;;5096745;28;20469;-77
2023/05/27 07:07:32;;;;;;;12.52;8.23;;;;;;;;;;5103192;28;20100;-74
2023/05/27 07:09:57;;;;;;;10.60;7.70;;;;;;;;;;5102837;28;20393;-76
2023/05/27 07:12:23;;;;;;;9.30;7.68;;;;;;;;;;5092786;28;20031;-75
2023/05/27 07:14:49;;;;;;;9.23;7.68;;;;;;;;;;5103064;28;20024;-76
2023/05/27 07:17:14;;;;;;;10.40;7.60;;;;;;;;;;5090568;28;20027;-78
2023/05/27 07:19:39;;;;;;;10.48;8.35;;;;;;;;;;5093335;27;20080;-79
2023/05/27 07:22:05;;;;;;;7.05;6.45;;;;;;;;;;5073441;28;20392;-76
2023/05/27 07:24:31;;;;;;;10.13;7.40;;;;;;;;;;5090260;27;20015;-78
2023/05/27 07:26:56;;;;;;;7.88;7.18;;;;;;;;;;5091726;27;20038;-75
2023/05/27 07:29:21;;;;;;;9.43;7.35;;;;;;;;;;5089856;28;20049;-75
2023/05/27 07:31:47;;;;;;;7.95;6.97;;;;;;;;;;5092716;27;20039;-79
2023/05/27 07:34:12;;;;;;;8.48;6.60;;;;;;;;;;5092773;27;20031;-75
2023/05/27 07:36:37;;;;;;;7.88;7.13;;;;;;;;;;5093982;27;20075;-75
2023/05/27 07:39:03;;;;;;;8.43;7.47;;;;;;;;;;5104836;27;20488;-76
2023/05/27 07:41:29;;;;;;;7.35;6.65;;;;;;;;;;5087359;28;20118;-75
2023/05/27 07:43:55;;;;;;;8.23;7.18;;;;;;;;;;5104584;27;20349;-75
2023/05/27 07:46:20;;;;;;;7.97;7.20;;;;;;;;;;5105533;27;20027;-74
2023/05/27 07:48:45;;;;;;;10.18;6.88;;;;;;;;;;5104487;27;20410;-74
2023/05/27 07:51:11;;;;;;;8.23;7.10;;;;;;;;;;5091214;27;20483;-75
2023/05/27 07:53:36;;;;;;;7.93;7.13;;;;;;;;;;5102542;27;20027;-75
2023/05/27 07:56:02;;;;;;;10.18;7.00;;;;;;;;;;5097440;27;20031;-75
2023/05/27 07:58:28;;;;;;;8.48;7.60;;;;;;;;;;5106570;27;20016;-74
2023/05/27 08:00:53;;;;;;;7.78;7.07;;;;;;;;;;5100032;27;20032;-75
2023/05/27 08:03:18;;;;;;;10.07;7.95;;;;;;;;;;5087817;27;21393;-75
2023/05/27 08:05:44;;;;;;;9.27;7.40;;;;;;;;;;5090206;27;20042;-74
2023/05/27 08:08:09;;;;;;;8.57;7.68;;;;;;;;;;5089330;27;20103;-74
2023/05/27 08:10:35;;;;;;;9.55;8.65;;;;;;;;;;5092629;27;20385;-76
2023/05/27 08:13:00;;;;;;;7.72;7.03;;;;;;;;;;5107855;27;20055;-75
2023/05/27 08:15:26;;;;;;;9.43;8.38;;;;;;;;;;5108463;27;20051;-75
2023/05/27 08:17:52;;;;;;;9.13;8.32;;;;;;;;;;5101077;27;20027;-75
2023/05/27 08:20:17;;;;;;;10.02;8.95;;;;;;;;;;5086958;28;20035;-75
2023/05/27 08:22:43;;;;;;;9.52;8.55;;;;;;;;;;5103336;27;20450;-75
2023/05/27 08:25:08;;;;;;;9.70;8.80;;;;;;;;;;5106374;27;20019;-75
2023/05/27 08:27:46;;;;;;;8.77;8.07;;;;;;;;;;5106156;27;20054;-75
2023/05/27 08:30:12;;;;;;;9.98;8.32;;;;;;;;;;5104436;27;20088;-74
2023/05/27 08:32:41;;;;;;;8.73;7.88;;;;;;;;;;5105343;27;20016;-74
2023/05/27 08:35:07;;;;;;;10.55;8.02;;;;;;;;;;5105070;27;20062;-75
2023/05/27 08:37:32;;;;;;;8.30;7.50;;;;;;;;;;5105652;27;20066;-75
2023/05/27 08:39:58;;;;;;;10.07;8.05;;;;;;;;;;5108208;27;20608;-73
2023/05/27 08:42:24;;;;;;;9.75;8.73;;;;;;;;;;5105447;27;20082;-75
2023/05/27 08:44:49;;;;;;;10.95;9.00;;;;;;;;;;5105132;27;20028;-76
2023/05/27 08:47:15;;;;;;;11.15;9.80;;;;;;;;;;5104604;27;20059;-76
2023/05/27 08:49:41;;;;;;;10.82;9.73;;;;;;;;;;5105812;27;20092;-76
2023/05/27 08:52:07;;;;;;;12.05;10.00;;;;;;;;;;5105066;27;20036;-75
2023/05/27 08:54:34;;;;;;;11.68;10.43;;;;;;;;;;5106155;27;20054;-75
2023/05/27 08:57:00;;;;;;;12.25;10.57;;;;;;;;;;5105542;27;20429;-76
2023/05/27 08:59:26;;;;;;;11.85;10.50;;;;;;;;;;5104543;27;20019;-75
2023/05/27 09:01:52;;;;;;;13.32;12.02;;;;;;;;;;5104873;27;20632;-77
2023/05/27 09:04:17;;;;;;;11.00;10.00;;;;;;;;;;5105711;27;20157;-74
2023/05/27 09:06:42;;;;;;;12.85;11.32;;;;;;;;;;5106068;27;20038;-75
2023/05/27 09:09:12;;;;;;;13.35;12.05;;;;;;;;;;5106430;27;20034;-75
2023/05/27 09:11:39;;;;;;;12.50;11.30;;;;;;;;;;5104902;27;20036;-74
2023/05/27 09:14:05;;;;;;;12.70;11.50;;;;;;;;;;5104914;27;20066;-75
2023/05/27 09:16:31;;;;;;;12.85;11.50;;;;;;;;;;5103824;27;20398;-74
2023/05/27 09:18:57;;;;;;;13.05;11.75;;;;;;;;;;5104709;27;20118;-77
2023/05/27 09:21:24;;;;;;;13.18;11.88;;;;;;;;;;5101920;27;20385;-73
2023/05/27 09:23:50;;;;;;;15.82;14.43;;;;;;;;;;5103580;27;20020;-75
2023/05/27 09:26:15;;;;;;;16.38;14.75;;;;;;;;;;5103853;27;20110;-75
2023/05/27 09:28:41;;;;;;;17.23;15.52;;;;;;;;;;5104389;27;20022;-74
2023/05/27 09:31:07;;;;;;;17.60;15.80;;;;;;;;;;5104428;27;20031;-76
2023/05/27 09:33:34;;;;;;;19.33;17.42;;;;;;;;;;5103890;27;20917;-77
2023/05/27 09:36:01;;;;;;;18.23;16.63;;;;;;;;;;5104125;27;20072;-74
2023/05/27 09:38:29;;;;;;;19.55;17.55;;;;;;;;;;5104461;27;20019;-77
2023/05/27 09:40:55;;;;;;;18.88;17.15;;;;;;;;;;5103288;27;20058;-74
2023/05/27 09:43:21;;;;;;;20.85;18.85;;;;;;;;;;5107227;27;20438;-73
2023/05/27 09:45:47;;;;;;;28.33;25.80;;;;;;;;;;5103268;27;20015;-75
2023/05/27 09:48:13;;;;;;;22.05;19.58;;;;;;;;;;5076247;28;20408;-77
2023/05/27 09:50:40;;;;;;;23.38;21.30;;;;;;;;;;5097633;27;20456;-75
2023/05/27 09:53:06;;;;;;;21.35;19.45;;;;;;;;;;5102647;27;20062;-74
2023/05/27 09:55:31;;;;;;;29.45;26.60;;;;;;;;;;5103460;28;20172;-76
2023/05/27 09:57:57;;;;;;;21.45;19.63;;;;;;;;;;5102449;28;20374;-74
2023/05/27 10:00:23;;;;;;;21.58;19.48;;;;;;;;;;5104477;27;20027;-77
2023/05/27 10:02:48;;;;;;;20.58;18.63;;;;;;;;;;5103245;28;20168;-75
2023/05/27 10:05:15;;;;;;;19.85;18.15;;;;;;;;;;5104401;28;20114;-75
2023/05/27 10:07:41;;;;;;;19.35;17.50;;;;;;;;;;5103322;28;20132;-76
2023/05/27 10:10:08;;;;;;;20.67;18.77;;;;;;;;;;5103916;27;20048;-75
2023/05/27 10:12:34;;;;;;;26.05;23.35;;;;;;;;;;5103576;28;20082;-76
2023/05/27 10:14:59;;;;;;;21.30;19.35;;;;;;;;;;5104238;28;20430;-75
2023/05/27 10:17:25;;;;;;;21.17;19.25;;;;;;;;;;5103510;28;20024;-76
2023/05/27 10:19:57;;;;;;;20.90;18.98;;;;;;;;;;5103579;28;20072;-75
2023/05/27 10:22:23;;;;;;;29.67;19.83;;;;;;;;;;5103359;28;20056;-75
2023/05/27 10:24:49;;;;;;;20.23;18.17;;;;;;;;;;5103333;28;20028;-75
2023/05/27 10:27:15;;;;;;;20.42;18.27;;;;;;;;;;5105800;28;20035;-74
2023/05/27 10:29:41;;;;;;;18.83;17.00;;;;;;;;;;5104040;28;21586;-75
2023/05/27 10:32:06;;;;;;;17.63;16.02;;;;;;;;;;5104374;28;20024;-74
2023/05/27 10:34:35;;;;;;;17.80;16.25;;;;;;;;;;5103872;28;20043;-76
2023/05/27 10:37:01;;;;;;;;;;;;;;;;;;5104385;28;20023;-74
2023/05/27 10:39:26;;;;;;;17.87;16.07;;;;;;;;;;5102961;28;20315;-74
2023/05/27 10:41:52;;;;;;;17.98;16.40;;;;;;;;;;5086461;28;20059;-75
2023/05/27 10:44:30;;;;;;;17.83;16.17;;;;;;;;;;5101661;28;20024;-76
2023/05/27 10:47:03;;;;;;;16.70;15.10;;;;;;;;;;5104569;28;20036;-77
2023/05/27 10:49:35;;;;;;;17.13;15.25;;;;;;;;;;5103270;28;20057;-76
2023/05/27 10:52:05;;;;;;;15.48;14.18;;;;;;;;;;5101299;28;20024;-77
2023/05/27 10:54:30;;;;;;;15.35;13.85;;;;;;;;;;5091064;27;20103;-77
2023/05/27 10:56:56;;;;;;;15.40;13.82;;;;;;;;;;5097862;27;20497;-76
2023/05/27 10:59:22;;;;;;;13.38;12.05;;;;;;;;;;5092006;27;20103;-76
2023/05/27 11:01:51;;;;;;;13.60;11.57;;;;;;;;;;5103677;27;20036;-77
2023/05/27 11:04:16;;;;;;;11.25;10.25;;;;;;;;;;5091801;27;20035;-73
2023/05/27 11:06:41;;;;;;;10.88;9.68;;;;;;;;;;5093461;27;20023;-74
2023/05/27 11:09:07;;;;;;;10.50;9.05;;;;;;;;;;5090210;27;20031;-77
2023/05/27 11:11:33;;;;;;;10.93;9.68;;;;;;;;;;5090949;27;20048;-74
2023/05/27 11:13:59;;;;;;;12.30;11.10;;;;;;;;;;5090296;28;20046;-75
2023/05/27 11:16:24;;;;;;;14.23;12.88;;;;;;;;;;5090850;27;20023;-77
2023/05/27 11:18:50;;;;;;;17.65;15.93;;;;;;;;;;5093274;27;20762;-76
2023/05/27 11:21:16;;;;;;;17.23;15.63;;;;;;;;;;5091362;27;20464;-75
2023/05/27 11:23:45;;;;;;;17.45;15.70;;;;;;;;;;5091992;27;20449;-76
2023/05/27 11:26:15;;;;;;;18.20;16.50;;;;;;;;;;5074004;28;20016;-74
2023/05/27 11:28:50;;;;;;;18.35;16.50;;;;;;;;;;5102641;27;20051;-74
2023/05/27 11:31:16;;;;;;;20.35;18.55;;;;;;;;;;5106497;27;20035;-74
2023/05/27 11:33:43;;;;;;;22.58;20.60;;;;;;;;;;5098382;27;20028;-73
2023/05/27 11:36:11;;;;;;;25.55;23.15;;;;;;;;;;5089680;28;20024;-75
2023/05/27 11:38:46;;;;;;;25.52;23.02;;;;;;;;;;5087938;28;20050;-75
2023/05/27 11:41:12;;;;;;;23.90;21.77;;;;;;;;;;5090931;27;20027;-75
2023/05/27 11:43:46;;;;;;;25.65;22.92;;;;;;;;;;5089273;28;20031;-76
2023/05/27 11:46:11;;;;;;;24.13;21.92;;;;;;;;;;5090200;28;20049;-74
2023/05/27 11:48:36;;;;;;;27.90;24.90;;;;;;;;;;5082422;27;20031;-73
2023/05/27 11:51:02;;;;;;;25.02;22.58;;;;;;;;;;5098861;27;20032;-74
2023/05/27 11:53:29;;;;;;;26.58;23.88;;;;;;;;;;5095660;27;20093;-75
2023/05/27 11:55:55;;;;;;;25.48;23.20;;;;;;;;;;5104734;27;20027;-73
2023/05/27 11:58:20;;;;;;;25.73;23.20;;;;;;;;;;5105230;27;20020;-74
2023/05/27 12:00:45;;;;;;;24.13;21.92;;;;;;;;;;5106635;27;20410;-72
2023/05/27 12:03:11;;;;;;;25.27;22.67;;;;;;;;;;5106433;27;20059;-74
2023/05/27 12:05:36;;;;;;;23.10;20.67;;;;;;;;;;5106097;27;20497;-73
2023/05/27 12:08:03;;;;;;;20.75;18.80;;;;;;;;;;5105782;27;20023;-74
2023/05/27 12:10:28;;;;;;;19.65;17.83;;;;;;;;;;5105639;27;20071;-76
2023/05/27 12:13:01;;;;;;;19.00;17.23;;;;;;;;;;5107714;27;20063;-75
2023/05/27 12:15:27;;;;;;;19.15;17.45;;;;;;;;;;5103723;27;20057;-78
2023/05/27 12:17:53;;;;;;;18.88;17.08;;;;;;;;;;5091535;27;20028;-73
2023/05/27 12:20:20;;;;;;;19.33;17.58;;;;;;;;;;5092988;27;20038;-76
2023/05/27 12:22:45;;;;;;;20.58;18.67;;;;;;;;;;5095605;27;20020;-77
2023/05/27 12:25:11;;;;;;;19.55;17.50;;;;;;;;;;5092529;27;20023;-77
2023/05/27 12:27:36;;;;;;;20.08;18.08;;;;;;;;;;5100827;27;20328;-75
2023/05/27 12:30:02;;;;;;;21.63;19.33;;;;;;;;;;5106613;27;20350;-75
2023/05/27 12:32:27;;;;;;;20.38;18.33;;;;;;;;;;5092551;27;20042;-76
2023/05/27 12:34:53;;;;;;;20.80;18.90;;;;;;;;;;5087280;27;20396;-75
2023/05/27 12:37:18;;;;;;;17.10;15.40;;;;;;;;;;5085155;28;20377;-76
2023/05/27 12:39:43;;;;;;;20.27;15.82;;;;;;;;;;5087712;27;20031;-76
2023/05/27 12:42:09;;;;;;;18.80;14.10;;;;;;;;;;5091104;27;20035;-77
2023/05/27 12:44:34;;;;;;;15.18;13.57;;;;;;;;;;5069965;28;20134;-75
2023/05/27 12:46:59;;;;;;;15.38;12.85;;;;;;;;;;5090319;28;20032;-75
2023/05/27 12:49:25;;;;;;;13.98;12.65;;;;;;;;;;5091574;27;20227;-76
2023/05/27 12:51:50;;;;;;;16.02;12.65;;;;;;;;;;5091218;27;20068;-75
2023/05/27 12:54:16;;;;;;;14.80;13.20;;;;;;;;;;5091394;27;20015;-75
2023/05/27 12:56:41;;;;;;;15.60;13.30;;;;;;;;;;5090684;27;20541;-74
2023/05/27 12:59:06;;;;;;;17.33;14.55;;;;;;;;;;5088871;27;20030;-76
2023/05/27 13:01:32;;;;;;;14.80;11.65;;;;;;;;;;5089323;27;20028;-76
2023/05/27 13:03:57;;;;;;;14.65;12.98;;;;;;;;;;5089454;28;20019;-74
2023/05/27 13:06:23;;;;;;;15.48;14.02;;;;;;;;;;5089119;27;20032;-75
2023/05/27 13:08:48;;;;;;;14.27;13.00;;;;;;;;;;5092437;27;20700;-76
2023/05/27 13:11:13;;;;;;;13.68;12.38;;;;;;;;;;5091358;27;20047;-75
2023/05/27 13:13:39;;;;;;;15.07;13.48;;;;;;;;;;5091970;27;20024;-74
2023/05/27 13:16:04;;;;;;;13.90;12.70;;;;;;;;;;5089194;28;20065;-75
2023/05/27 13:18:30;;;;;;;14.50;12.63;;;;;;;;;;5090011;27;20051;-75
2023/05/27 13:20:55;;;;;;;16.70;12.57;;;;;;;;;;5089190;28;20144;-73
2023/05/27 13:23:21;;;;;;;13.80;12.43;;;;;;;;;;5089863;28;20020;-74
2023/05/27 13:25:47;;;;;;;15.63;13.13;;;;;;;;;;5072870;28;20380;-77
2023/05/27 13:28:12;;;;;;;14.60;13.15;;;;;;;;;;5090925;27;20027;-75
2023/05/27 13:30:38;;;;;;;15.18;13.07;;;;;;;;;;5090420;27;20045;-74
2023/05/27 13:33:03;;;;;;;17.30;13.95;;;;;;;;;;5090121;28;20328;-74
2023/05/27 13:35:29;;;;;;;14.32;12.77;;;;;;;;;;5090665;28;20075;-76
2023/05/27 13:37:55;;;;;;;14.95;13.45;;;;;;;;;;5090165;27;20425;-73
2023/05/27 13:40:20;;;;;;;18.95;15.45;;;;;;;;;;5090281;28;20068;-74
2023/05/27 13:42:46;;;;;;;15.02;13.40;;;;;;;;;;5089799;28;20094;-75
2023/05/27 13:45:11;;;;;;;16.23;14.30;;;;;;;;;;5089791;28;20118;-75
2023/05/27 13:47:40;;;;;;;16.70;14.90;;;;;;;;;;5089683;27;20334;-77
2023/05/27 13:50:06;;;;;;;15.10;13.70;;;;;;;;;;5070573;27;20430;-75
2023/05/27 13:52:31;;;;;;;14.95;13.45;;;;;;;;;;5069632;28;20034;-73
2023/05/27 13:54:57;;;;;;;16.33;14.73;;;;;;;;;;5087789;28;20023;-77
2023/05/27 13:57:22;;;;;;;16.15;14.27;;;;;;;;;;5103643;27;20450;-76
2023/05/27 13:59:47;;;;;;;15.80;14.20;;;;;;;;;;5088507;28;20024;-75
2023/05/27 14:02:13;;;;;;;16.30;14.60;;;;;;;;;;5086146;28;20039;-75
2023/05/27 14:04:38;;;;;;;16.58;14.88;;;;;;;;;;5086381;28;20028;-74
2023/05/27 14:07:04;;;;;;;16.70;15.00;;;;;;;;;;5087678;28;20466;-75
2023/05/27 14:09:29;;;;;;;17.08;15.32;;;;;;;;;;5088491;28;20020;-76
2023/05/27 14:11:55;;;;;;;17.40;15.70;;;;;;;;;;5088618;28;20426;-75
2023/05/27 14:14:21;;;;;;;21.15;16.60;;;;;;;;;;5091875;28;20015;-80
2023/05/27 14:16:47;;;;;;;19.05;15.90;;;;;;;;;;5088571;28;20026;-75
2023/05/27 14:19:12;;;;;;;22.80;17.63;;;;;;;;;;5087967;28;20054;-75
2023/05/27 14:21:39;;;;;;;22.50;10.02;;;;;;;;;;5088126;28;20511;-76